KCFV - Coffeyville, Kansas, USA
Distance from station: ENE 93mi, 150km
Updated: Fri, 25-Sep-2020 6:52pm PDT
Clear
Clear
 Wind from S
Wind: S 10 mph , 17 km/h
Temperature: 72°F , 22°C
Dew Point: 63°F , 17°C
Humidity: 73%
Barometer: 29.88 inHg , 1011.9 hPa
Clouds: Clear
Visibility: 10 miles , 16 km
2020/09/26 01:52 KCFV 260152Z AUTO 18009KT 10SM CLR 22/17 A2988 RMK AO2 SLP112 T02220167
KIDP - Independence, Kansas, USA
Distance from station: NE 86mi, 138km
Updated: Fri, 25-Sep-2020 6:55pm PDT
Clear
Clear
 Wind from S
Wind: S 12 mph , 19 km/h
Temperature: 70°F , 21°C
Dew Point: 64°F , 18°C
Humidity: 83%
Barometer: 29.89 inHg , 1012.2 hPa
Clouds: Clear
Visibility: 10 miles , 16 km
2020/09/26 01:55 KIDP 260155Z AUTO 18010KT 10SM CLR 21/18 A2989 RMK AO2 T02110182
 
KIAB - Mcconnell Afb, Kansas, USA
Distance from station: N 84mi, 135km
Updated: Fri, 25-Sep-2020 6:56pm PDT
Clear
Clear
 Wind from S
Wind: S 15 mph , 24 km/h
Temperature: 77°F , 25°C
Dew Point: 63°F , 17°C
Humidity: 61%
Barometer: 29.84 inHg , 1010.5 hPa
Clouds: Clear
Visibility: 10 miles , 16 km
2020/09/26 01:56 KIAB 260156Z AUTO 18013KT 10SM CLR 25/17 A2984 RMK AO2 SLP097 T02480170
KICT - Wichita, Kansas, USA
Distance from station: NNW 88mi, 142km
Updated: Fri, 25-Sep-2020 6:53pm PDT
Clear
Clear
 Wind from SSE
Wind: SSE 13 mph , 20 km/h
Temperature: 75°F , 24°C
Dew Point: 64°F , 18°C
Humidity: 69%
Barometer: 29.82 inHg , 1009.8 hPa
Clouds: Clear
Visibility: 10 miles , 16 km
2020/09/26 01:53 KICT 260153Z 16011KT 10SM CLR 24/18 A2982 RMK AO2 SLP087 T02440178
 
KAAO - Wichita/Jabara, Kansas, USA
Distance from station: N 93mi, 149km
Updated: Fri, 25-Sep-2020 6:54pm PDT
Clear
Clear
 Wind from S
Wind: S 15 mph , 24 km/h, Gust: 24 mph , 39 km/h
Temperature: 75°F , 24°C
Dew Point: 64°F , 18°C
Humidity: 69%
Barometer: 29.83 inHg , 1010.2 hPa
Clouds: Clear
Visibility: 10 miles , 16 km
2020/09/26 01:54 KAAO 260154Z AUTO 17013G21KT 10SM CLR 24/18 A2983 RMK AO2 SLP091 T02440178
KWLD - Winfield/Arkansa, Kansas, USA
Distance from station: N 52mi, 84km
Updated: Fri, 25-Sep-2020 4:54am PDT
NOT Current
Clear
Clear
 Wind from SSE
Wind: SSE 8 mph , 13 km/h
Temperature: 63°F , 17°C
Dew Point: 61°F , 16°C
Humidity: 94%
Barometer: 29.89 inHg , 1012.2 hPa
Clouds: Clear
Visibility: 10 miles , 16 km
2020/09/25 11:54 KWLD 251154Z AUTO 16007KT 10SM CLR 17/16 A2989 RMK AO2 SLP114 T01720156 10189 20172 53006
 
KAVK - Alva, Oklahoma, USA
Distance from station: WNW 94mi, 152km
Updated: Fri, 25-Sep-2020 7:15pm PDT
Few Clouds
Few Clouds
 Wind from S
Wind: S 16 mph , 26 km/h
Temperature: 77°F , 25°C
Dew Point: 61°F , 16°C
Humidity: 57%
Barometer: 29.83 inHg , 1010.2 hPa
Clouds: Few Clouds
Visibility: 10 miles , 16 km
Cloud details: Few Clouds 5000 ft
2020/09/26 02:15 KAVK 260215Z AUTO 18014KT 10SM FEW050 25/16 A2983 RMK AO2 PWINO TSNO
KBVO - Bartlesville, Oklahoma, USA
Distance from station: ENE 61mi, 98km
Updated: Fri, 25-Sep-2020 6:53pm PDT
Clear
Clear
 Wind from S
Wind: S 6 mph , 9 km/h
Temperature: 72°F , 22°C
Dew Point: 64°F , 18°C
Humidity: 78%
Barometer: 29.89 inHg , 1012.2 hPa
Clouds: Clear
Visibility: 10 miles , 16 km
2020/09/26 01:53 KBVO 260153Z AUTO 18005KT 10SM CLR 22/18 A2989 RMK AO2 SLP114 T02220178
 
KBKN - Blackwell, Oklahoma, USA
Distance from station: NW 29mi, 47km
Updated: Fri, 25-Sep-2020 7:15pm PDT
Few Clouds
Few Clouds
 Wind from SE
Wind: SE 8 mph , 13 km/h
Temperature: 73°F , 23°C
Dew Point: 68°F , 20°C
Humidity: 83%
Barometer: 29.86 inHg , 1011.2 hPa
Clouds: Few Clouds
Visibility: 10 miles , 16 km
Cloud details: Few Clouds 5500 ft
2020/09/26 02:15 KBKN 260215Z AUTO 14007KT 10SM FEW055 23/20 A2986 RMK AO2
KGCM - Claremore, Oklahoma, USA
Distance from station: E 86mi, 138km
Updated: Fri, 25-Sep-2020 7:15pm PDT
Clear
Clear
 Wind from S
Wind: S 7 mph , 11 km/h
Temperature: 68°F , 20°C
Dew Point: 55°F , 13°C
Humidity: 64%
Barometer: 29.94 inHg , 1013.9 hPa
Clouds: Clear
Visibility: 10 miles , 16 km
2020/09/26 02:15 KGCM 260215Z AUTO 18006KT 10SM CLR 20/13 A2994 RMK AO2
 
KCQB - Chandler, Oklahoma, USA
Distance from station: SSE 50mi, 80km
Updated: Fri, 25-Sep-2020 6:55pm PDT
Clear
Clear
 Wind from SSE
Wind: SSE 8 mph , 13 km/h
Temperature: 72°F , 22°C
Dew Point: 63°F , 17°C
Humidity: 73%
Barometer: 29.91 inHg , 1012.9 hPa
Clouds: Clear
Visibility: 10 miles , 16 km
2020/09/26 01:55 KCQB 260155Z AUTO 16007KT 10SM CLR 22/17 A2991 RMK AO2 T02180172
KCUH - Cushing, Oklahoma, USA
Distance from station: SSE 35mi, 57km
Updated: Fri, 25-Sep-2020 6:55pm PDT
Clear
Clear
 Wind from S
Wind: S 7 mph , 11 km/h
Temperature: 72°F , 22°C
Dew Point: 64°F , 18°C
Humidity: 78%
Barometer: 29.88 inHg , 1011.9 hPa
Clouds: Clear
Visibility: 10 miles , 16 km
2020/09/26 01:55 KCUH 260155Z AUTO 17006KT 10SM CLR 22/18 A2988 RMK AO2 T02200177
 
KRQO - El Reno Muni, Oklahoma, USA
Distance from station: SW 85mi, 137km
Updated: Fri, 25-Sep-2020 6:55pm PDT
Clear
Clear
 Wind from SSE
Wind: SSE 14 mph , 22 km/h
Temperature: 73°F , 23°C
Dew Point: 64°F , 18°C
Humidity: 74%
Barometer: 29.91 inHg , 1012.9 hPa
Clouds: Clear
Visibility: 10 miles , 16 km
2020/09/26 01:55 KRQO 260155Z AUTO 16012KT 10SM CLR 23/18 A2991 RMK AO2 T02260184
KEND - Enid/Vance Afb, Oklahoma, USA
Distance from station: W 50mi, 81km
Updated: Fri, 25-Sep-2020 6:56pm PDT
Clear
Clear
 Wind from SSE
Wind: SSE 13 mph , 20 km/h
Temperature: 77°F , 25°C
Dew Point: 70°F , 21°C
Humidity: 79%
Barometer: 29.85 inHg , 1010.8 hPa
Clouds: Clear
Visibility: 10 miles , 16 km
2020/09/26 01:56 KEND 260156Z AUTO 16011KT 10SM CLR 25/21 A2985 RMK AO2 SLP099 T02460211 $
 
KWDG - Enid/Woodring, Oklahoma, USA
Distance from station: W 42mi, 67km
Updated: Fri, 25-Sep-2020 7:15pm PDT
Clear
Clear
 Wind from SSE
Wind: SSE 9 mph , 15 km/h
Barometer: 29.85 inHg , 1010.8 hPa
Clouds: Clear
Visibility: 10 miles , 16 km
2020/09/26 02:15 KWDG 260215Z AUTO 16008KT 10SM CLR A2985 RMK AO2
KGOK - Guthrie, Oklahoma, USA
Distance from station: SSW 44mi, 71km
Updated: Fri, 25-Sep-2020 6:53pm PDT
Clear
Clear
 Wind from S
Wind: S 12 mph , 19 km/h
Temperature: 73°F , 23°C
Dew Point: 66°F , 19°C
Humidity: 78%
Barometer: 29.87 inHg , 1011.5 hPa
Clouds: Clear
Visibility: 10 miles , 16 km
2020/09/26 01:53 KGOK 260153Z AUTO 17010KT 10SM CLR 23/19 A2987 RMK AO2 SLP107 T02330189
 
KOUN - Norman/Westheime, Oklahoma, USA
Distance from station: SSW 84mi, 136km
Updated: Fri, 25-Sep-2020 6:45pm PDT

 Wind from SSE
Wind: SSE 13 mph , 20 km/h
2020/09/26 01:45 KOUN 260145Z 15011KT 10 SM CLR 23/18 A2989
KOKC - Oklahoma City, Oklahoma, USA
Distance from station: SSW 78mi, 126km
Updated: Fri, 25-Sep-2020 6:52pm PDT
Clear
Clear
 Wind from S
Wind: S 10 mph , 17 km/h
Temperature: 72°F , 22°C
Dew Point: 64°F , 18°C
Humidity: 78%
Barometer: 29.90 inHg , 1012.5 hPa
Clouds: Clear
Visibility: 10 miles , 16 km
2020/09/26 01:52 KOKC 260152Z 17009KT 10SM CLR 22/18 A2990 RMK AO2 SLP112 T02220178
 
KPWA - Okla City/Wiley, Oklahoma, USA
Distance from station: SSW 70mi, 113km
Updated: Fri, 25-Sep-2020 6:53pm PDT
Clear
Clear
 Wind from S
Wind: S 17 mph , 28 km/h
Temperature: 75°F , 24°C
Dew Point: 64°F , 18°C
Humidity: 69%
Barometer: 29.88 inHg , 1011.9 hPa
Clouds: Clear
Visibility: 10 miles , 16 km
2020/09/26 01:53 KPWA 260153Z 17015KT 10SM CLR 24/18 A2988 RMK AO2 SLP107 T02390178
KRCE - Okla City/Page, Oklahoma, USA
Distance from station: SW 78mi, 126km
Updated: Fri, 25-Sep-2020 6:55pm PDT

 Wind from S
Wind: S 13 mph , 20 km/h
Temperature: 73°F , 23°C
Dew Point: 66°F , 19°C
Humidity: 78%
Barometer: 29.89 inHg , 1012.2 hPa
Visibility: 10 miles , 16 km
2020/09/26 01:55 KRCE 260155Z AUTO 17011KT 10SM 23/19 A2989 RMK AO2
 
KOKM - Okmulgee, Oklahoma, USA
Distance from station: SE 79mi, 127km
Updated: Fri, 25-Sep-2020 6:55pm PDT
Clear
Clear
 Wind from SE
Wind: SE 10 mph , 17 km/h
Temperature: 68°F , 20°C
Dew Point: 64°F , 18°C
Humidity: 88%
Barometer: 29.93 inHg , 1013.5 hPa
Clouds: Clear
Visibility: 10 miles , 16 km
2020/09/26 01:55 KOKM 260155Z AUTO 13009KT 10SM CLR 20/18 A2993 RMK AO2 T01990184
KPNC - Ponca City, Oklahoma, USA
Distance from station: N 22mi, 36km
Updated: Fri, 25-Sep-2020 6:53pm PDT
Clear
Clear
 Wind from S
Wind: S 10 mph , 17 km/h, Gust: 23 mph , 37 km/h
Temperature: 75°F , 24°C
Dew Point: 64°F , 18°C
Humidity: 69%
Barometer: 29.85 inHg , 1010.8 hPa
Clouds: Clear
Visibility: 10 miles , 16 km
2020/09/26 01:53 KPNC 260153Z AUTO 17009G20KT 10SM CLR 24/18 A2985 RMK AO2 SLP098 T02440183
 
KSNL - Shawnee, Oklahoma, USA
Distance from station: S 74mi, 119km
Updated: Fri, 25-Sep-2020 6:55pm PDT
Clear
Clear
 Wind from S
Wind: S 13 mph , 20 km/h
Temperature: 72°F , 22°C
Dew Point: 63°F , 17°C
Humidity: 73%
Barometer: 29.92 inHg , 1013.2 hPa
Clouds: Clear
Visibility: 10 miles , 16 km
2020/09/26 01:55 KSNL 260155Z AUTO 18011KT 10SM CLR 22/17 A2992 RMK AO2 T02150173
KSWO - Stillwater, Oklahoma, USA
Distance from station: S 17mi, 28km
Updated: Fri, 25-Sep-2020 6:53pm PDT
Clear
Clear
 Wind from S
Wind: S 13 mph , 20 km/h
Temperature: 75°F , 24°C
Dew Point: 64°F , 18°C
Humidity: 69%
Barometer: 29.87 inHg , 1011.5 hPa
Clouds: Clear
Visibility: 10 miles , 16 km
2020/09/26 01:53 KSWO 260153Z AUTO 17011KT 10SM CLR 24/18 A2987 RMK AO2 SLP103 T02390178
 
KTIK - Tinker Afb, Oklahoma, USA
Distance from station: SSW 72mi, 115km
Updated: Fri, 25-Sep-2020 6:56pm PDT
Clear
Clear
 Wind from S
Wind: S 12 mph , 19 km/h
Temperature: 72°F , 22°C
Dew Point: 64°F , 18°C
Humidity: 78%
Barometer: 29.90 inHg , 1012.5 hPa
Clouds: Clear
Visibility: 10 miles , 16 km
2020/09/26 01:56 KTIK 260156Z AUTO 17010KT 10SM CLR 22/18 A2990 RMK AO2 SLP123 T02220182
KTUL - Tulsa, Oklahoma, USA
Distance from station: ESE 65mi, 105km
Updated: Fri, 25-Sep-2020 6:53pm PDT
Clear
Clear
 Wind from S
Wind: S 12 mph , 19 km/h
Temperature: 73°F , 23°C
Dew Point: 64°F , 18°C
Humidity: 74%
Barometer: 29.90 inHg , 1012.5 hPa
Clouds: Clear
Visibility: 10 miles , 16 km
2020/09/26 01:53 KTUL 260153Z 17010KT 10SM CLR 23/18 A2990 RMK AO2 SLP119 T02280178

Metar display script from Saratoga-Weather.org